createdAt,value
2022-08-31T00:03:01.794Z,69.37
2022-08-31T00:06:10.986Z,69.52
2022-08-31T00:09:16.571Z,70.00
2022-08-31T00:12:23.676Z,69.91
2022-08-31T00:15:31.061Z,69.92
2022-08-31T00:18:36.808Z,70.44
2022-08-31T00:21:45.250Z,70.92
2022-08-31T00:24:53.587Z,70.63
2022-08-31T00:27:59.276Z,71.22
2022-08-31T00:31:07.446Z,71.25
2022-08-31T00:34:13.424Z,71.22
2022-08-31T00:37:22.613Z,70.87
2022-08-31T00:40:29.673Z,71.14
2022-08-31T00:43:46.404Z,71.79
2022-08-31T00:46:51.993Z,71.33
2022-08-31T00:49:57.775Z,71.44
2022-08-31T00:53:07.311Z,71.61
2022-08-31T00:56:13.065Z,71.16
2022-08-31T00:59:23.540Z,71.43
2022-08-31T01:02:29.614Z,71.45
2022-08-31T01:05:37.023Z,71.32
2022-08-31T01:08:45.221Z,71.66
2022-08-31T01:11:54.524Z,71.86
2022-08-31T01:15:02.773Z,71.89
2022-08-31T01:18:11.991Z,72.74
2022-08-31T01:21:42.313Z,72.89
2022-08-31T01:24:54.109Z,73.04
2022-08-31T01:28:06.825Z,73.05
2022-08-31T01:31:23.692Z,72.55
2022-08-31T01:34:30.071Z,72.69
2022-08-31T01:37:36.521Z,72.27
2022-08-31T01:40:56.633Z,72.18
2022-08-31T01:44:03.327Z,72.29
2022-08-31T01:47:09.205Z,71.65
2022-08-31T01:50:14.937Z,71.69
2022-08-31T01:53:20.887Z,71.69
2022-08-31T01:56:33.073Z,71.82
2022-08-31T01:59:40.906Z,71.82
2022-08-31T02:03:08.753Z,71.77
2022-08-31T02:06:17.204Z,71.58
2022-08-31T02:09:25.196Z,71.60
2022-08-31T02:12:39.357Z,71.63
2022-08-31T02:15:46.647Z,71.45
2022-08-31T02:18:54.556Z,71.95
2022-08-31T02:22:00.243Z,71.33
2022-08-31T02:25:26.253Z,71.68
2022-08-31T02:28:35.027Z,71.61
2022-08-31T02:31:41.087Z,71.42
2022-08-31T02:34:46.677Z,70.85
2022-08-31T02:37:52.650Z,70.74
2022-08-31T02:41:04.935Z,71.05
2022-08-31T02:44:14.042Z,70.93
2022-08-31T02:47:21.793Z,71.13
2022-08-31T02:50:52.145Z,71.44
2022-08-31T02:53:58.044Z,71.43
2022-08-31T02:57:03.739Z,71.41
2022-08-31T03:00:17.396Z,71.62
2022-08-31T03:03:24.349Z,71.79
2022-08-31T03:06:30.079Z,71.56
2022-08-31T03:09:35.816Z,71.60
2022-08-31T03:12:41.595Z,71.63
2022-08-31T03:15:52.832Z,71.50
2022-08-31T03:19:00.364Z,71.69
2022-08-31T03:22:06.077Z,71.95
2022-08-31T03:25:13.368Z,71.91
2022-08-31T03:28:19.503Z,72.14
2022-08-31T03:31:45.135Z,72.33
2022-08-31T03:34:51.243Z,72.17
2022-08-31T03:37:56.887Z,72.03
2022-08-31T03:41:05.016Z,71.35
2022-08-31T03:44:12.589Z,71.38
2022-08-31T03:47:21.233Z,71.32
2022-08-31T03:50:29.235Z,71.68
2022-08-31T03:53:46.469Z,70.89
2022-08-31T03:56:57.110Z,71.18
2022-08-31T04:00:08.983Z,71.29
2022-08-31T04:03:22.505Z,71.22
2022-08-31T04:06:54.500Z,70.52
2022-08-31T04:10:24.274Z,70.05
2022-08-31T04:13:57.013Z,70.39
2022-08-31T04:17:25.617Z,70.09
2022-08-31T04:20:44.249Z,70.34
2022-08-31T04:23:53.037Z,70.60
2022-08-31T04:26:58.944Z,70.61
2022-08-31T04:30:05.047Z,70.76
2022-08-31T04:33:11.497Z,70.72
2022-08-31T04:36:24.164Z,70.66
2022-08-31T04:39:34.493Z,70.81
2022-08-31T04:42:55.001Z,70.52
2022-08-31T04:46:08.482Z,70.35
2022-08-31T04:49:15.442Z,70.43
2022-08-31T04:52:28.268Z,69.82
2022-08-31T04:55:35.075Z,70.33
2022-08-31T04:58:42.548Z,69.78
2022-08-31T05:01:49.344Z,69.82
2022-08-31T05:05:16.243Z,69.22
2022-08-31T05:08:25.125Z,68.85
2022-08-31T05:11:33.032Z,68.40
2022-08-31T05:14:42.866Z,68.18
2022-08-31T05:17:58.216Z,67.13
2022-08-31T05:21:13.167Z,66.60
2022-08-31T05:24:24.822Z,66.13
2022-08-31T05:27:31.059Z,65.80
2022-08-31T05:30:36.752Z,65.53
2022-08-31T05:33:47.365Z,65.49
2022-08-31T05:36:59.620Z,65.96
2022-08-31T05:40:14.823Z,65.84
2022-08-31T05:43:20.627Z,65.63
2022-08-31T05:46:27.758Z,65.38
2022-08-31T05:49:43.050Z,64.97
2022-08-31T05:52:58.700Z,64.64
2022-08-31T05:56:19.124Z,63.70
2022-08-31T05:59:29.006Z,62.96
2022-08-31T06:02:35.944Z,60.87
2022-08-31T06:05:42.696Z,59.59
2022-08-31T06:08:51.151Z,59.11
2022-08-31T06:11:59.634Z,58.34
2022-08-31T06:15:05.816Z,58.26
2022-08-31T06:18:11.723Z,56.14
2022-08-31T06:21:17.451Z,55.24
2022-08-31T06:24:23.614Z,54.68
2022-08-31T06:27:31.837Z,55.04
2022-08-31T06:30:54.411Z,54.86
2022-08-31T06:34:03.280Z,53.59
2022-08-31T06:37:32.563Z,54.63
2022-08-31T06:41:39.064Z,53.01
2022-08-31T06:45:23.289Z,53.08
2022-08-31T06:48:46.780Z,53.15
2022-08-31T06:51:54.029Z,53.38
2022-08-31T06:55:00.036Z,52.85
2022-08-31T06:58:30.929Z,52.78
2022-08-31T07:02:09.362Z,51.46
2022-08-31T07:05:24.791Z,50.92
2022-08-31T07:08:32.008Z,51.05
2022-08-31T07:11:46.225Z,51.25
2022-08-31T07:14:54.698Z,50.80
2022-08-31T07:18:09.816Z,52.99
2022-08-31T07:21:20.746Z,52.92
2022-08-31T07:24:30.552Z,52.12
2022-08-31T07:27:37.353Z,53.90
2022-08-31T07:30:43.121Z,53.68
2022-08-31T07:34:00.211Z,55.25
2022-08-31T07:37:25.180Z,54.68
2022-08-31T07:40:44.707Z,53.63
2022-08-31T07:43:54.268Z,52.01
2022-08-31T07:47:00.197Z,52.68
2022-08-31T07:50:16.141Z,53.07
2022-08-31T07:53:58.796Z,54.04
2022-08-31T07:57:22.791Z,51.47
2022-08-31T08:00:33.326Z,49.73
2022-08-31T08:03:41.278Z,47.94
2022-08-31T08:07:11.560Z,47.76
2022-08-31T08:10:52.275Z,47.50
2022-08-31T08:14:25.166Z,46.79
2022-08-31T08:17:48.047Z,48.01
2022-08-31T08:20:58.642Z,47.66
2022-08-31T08:24:07.752Z,48.40
2022-08-31T08:27:36.599Z,48.46
2022-08-31T08:31:01.717Z,48.92
2022-08-31T08:34:10.393Z,47.34
2022-08-31T08:37:17.631Z,46.89
2022-08-31T08:40:48.282Z,48.23
2022-08-31T08:43:59.114Z,49.55
2022-08-31T08:47:20.710Z,50.82
2022-08-31T08:50:36.448Z,50.89
2022-08-31T08:53:46.565Z,51.18
2022-08-31T08:57:15.864Z,52.52
2022-08-31T09:00:30.678Z,52.11
2022-08-31T09:04:12.115Z,49.96
2022-08-31T09:08:23.622Z,48.59
2022-08-31T09:11:50.112Z,47.94
2022-08-31T09:15:31.997Z,45.60
2022-08-31T09:18:53.315Z,45.55
2022-08-31T09:22:03.230Z,40.69
2022-08-31T09:25:11.142Z,42.40
2022-08-31T09:28:19.508Z,42.29
2022-08-31T09:31:46.793Z,41.92
2022-08-31T09:35:02.180Z,41.49
2022-08-31T09:38:11.260Z,42.01
2022-08-31T09:41:35.704Z,40.72
2022-08-31T09:44:49.246Z,40.96
2022-08-31T09:48:01.547Z,42.56
2022-08-31T09:51:11.527Z,43.04
2022-08-31T09:54:37.126Z,41.02
2022-08-31T09:57:57.444Z,41.55
2022-08-31T10:01:19.931Z,42.39
2022-08-31T10:04:36.874Z,41.45
2022-08-31T10:07:59.151Z,41.67
2022-08-31T10:11:14.980Z,41.08
2022-08-31T10:14:34.447Z,41.86
2022-08-31T10:17:49.910Z,41.89
2022-08-31T10:21:14.244Z,40.64
2022-08-31T10:24:38.847Z,38.32
2022-08-31T10:27:58.330Z,37.88
2022-08-31T10:31:13.789Z,37.67
2022-08-31T10:34:42.348Z,39.49
2022-08-31T10:38:08.588Z,41.27
2022-08-31T10:41:27.323Z,42.04
2022-08-31T10:44:49.965Z,42.96
2022-08-31T10:48:05.355Z,43.86
2022-08-31T10:51:27.201Z,44.52
2022-08-31T10:54:57.489Z,44.92
2022-08-31T10:58:20.454Z,44.55
2022-08-31T11:01:45.828Z,45.82
2022-08-31T11:05:11.780Z,44.67
2022-08-31T11:08:49.283Z,45.28
2022-08-31T11:12:08.674Z,45.78
2022-08-31T11:15:49.033Z,46.53
2022-08-31T11:19:29.352Z,45.38
2022-08-31T11:23:20.394Z,44.70
2022-08-31T11:27:14.385Z,45.91
2022-08-31T11:30:29.225Z,44.92
2022-08-31T11:33:35.410Z,43.64
2022-08-31T11:36:55.006Z,44.69
2022-08-31T11:40:00.940Z,43.67
2022-08-31T11:43:24.241Z,44.69
2022-08-31T11:47:07.101Z,44.27
2022-08-31T11:50:56.177Z,43.88
2022-08-31T11:54:02.722Z,43.19
2022-08-31T11:57:15.746Z,44.38
2022-08-31T12:00:24.496Z,42.90
2022-08-31T12:03:50.848Z,42.42
2022-08-31T12:07:11.347Z,42.97
2022-08-31T12:10:39.950Z,43.19
2022-08-31T12:13:56.396Z,41.70
2022-08-31T12:17:23.194Z,40.74
2022-08-31T12:21:13.118Z,41.45
2022-08-31T12:24:45.689Z,41.37
2022-08-31T12:28:18.666Z,41.25
2022-08-31T12:31:34.638Z,39.94
2022-08-31T12:34:52.358Z,40.99
2022-08-31T12:38:04.748Z,39.80
2022-08-31T12:41:23.455Z,40.21
2022-08-31T12:44:37.042Z,40.42
2022-08-31T12:48:15.943Z,39.63
2022-08-31T12:51:46.145Z,39.83
2022-08-31T12:55:23.557Z,39.68
2022-08-31T12:59:07.011Z,40.47
2022-08-31T13:02:16.710Z,39.81
2022-08-31T13:05:26.814Z,37.80
2022-08-31T13:08:42.200Z,38.15
2022-08-31T13:11:57.406Z,39.12
2022-08-31T13:15:03.042Z,39.37
2022-08-31T13:18:16.201Z,39.16
2022-08-31T13:21:25.305Z,37.34
2022-08-31T13:24:37.986Z,38.60
2022-08-31T13:27:54.372Z,38.34
2022-08-31T13:31:09.387Z,39.20
2022-08-31T13:34:15.428Z,38.29
2022-08-31T13:37:31.659Z,39.26
2022-08-31T13:40:44.261Z,39.33
2022-08-31T13:43:59.141Z,40.33
2022-08-31T13:47:06.656Z,41.43
2022-08-31T13:50:22.650Z,41.85
2022-08-31T13:53:46.458Z,40.79
2022-08-31T13:56:59.101Z,40.93
2022-08-31T14:00:41.372Z,40.80
2022-08-31T14:03:57.427Z,41.52
2022-08-31T14:07:04.669Z,41.22
2022-08-31T14:10:22.482Z,40.76
2022-08-31T14:13:34.931Z,41.79
2022-08-31T14:16:51.965Z,39.74
2022-08-31T14:19:59.120Z,39.51
2022-08-31T14:23:35.073Z,39.85
2022-08-31T14:26:44.372Z,39.55
2022-08-31T14:29:58.586Z,39.74
2022-08-31T14:33:06.310Z,40.30
2022-08-31T14:36:16.259Z,41.40
2022-08-31T14:39:25.160Z,40.78
2022-08-31T14:42:37.371Z,41.96
2022-08-31T14:45:46.250Z,42.41
2022-08-31T14:48:52.013Z,42.51
2022-08-31T14:52:04.925Z,42.35
2022-08-31T14:55:13.054Z,42.12
2022-08-31T14:58:21.043Z,41.69
2022-08-31T15:01:35.849Z,42.04
2022-08-31T15:04:45.581Z,42.79
2022-08-31T15:07:53.171Z,42.56
2022-08-31T15:11:00.010Z,42.95
2022-08-31T15:14:20.441Z,43.03
2022-08-31T15:17:39.966Z,43.00
2022-08-31T15:20:56.106Z,43.49
2022-08-31T15:24:03.362Z,43.53
2022-08-31T15:27:12.980Z,43.27
2022-08-31T15:30:23.335Z,43.62
2022-08-31T15:33:33.506Z,42.58
2022-08-31T15:36:42.354Z,42.43
2022-08-31T15:39:49.484Z,42.44
2022-08-31T15:42:57.828Z,42.08
2022-08-31T15:46:13.291Z,42.83
2022-08-31T15:49:20.445Z,42.62
2022-08-31T15:52:33.661Z,43.28
2022-08-31T15:55:42.150Z,43.20
2022-08-31T15:58:54.050Z,43.57
2022-08-31T16:02:04.929Z,43.91
2022-08-31T16:05:29.003Z,44.39
2022-08-31T16:08:35.792Z,44.62
2022-08-31T16:11:43.632Z,44.95
2022-08-31T16:14:51.576Z,45.55
2022-08-31T16:17:58.310Z,46.48
2022-08-31T16:21:13.840Z,46.18
2022-08-31T16:24:28.038Z,45.75
2022-08-31T16:27:34.180Z,45.79
2022-08-31T16:30:48.099Z,45.37
2022-08-31T16:33:55.597Z,45.41
2022-08-31T16:37:07.976Z,45.65
2022-08-31T16:40:23.438Z,45.36
2022-08-31T16:43:29.411Z,45.69
2022-08-31T16:46:44.502Z,45.99
2022-08-31T16:49:51.954Z,46.62
2022-08-31T16:53:08.343Z,46.13
2022-08-31T16:56:19.587Z,46.51
2022-08-31T16:59:31.246Z,45.98
2022-08-31T17:02:36.986Z,46.19
2022-08-31T17:05:42.593Z,46.51
2022-08-31T17:08:52.347Z,46.58
2022-08-31T17:12:07.783Z,46.22
2022-08-31T17:15:14.254Z,46.53
2022-08-31T17:18:27.945Z,46.86
2022-08-31T17:21:37.181Z,47.12
2022-08-31T17:24:50.107Z,47.30
2022-08-31T17:28:07.627Z,47.81
2022-08-31T17:31:15.292Z,47.89
2022-08-31T17:34:26.311Z,48.27
2022-08-31T17:37:36.712Z,48.52
2022-08-31T17:40:45.530Z,48.75
2022-08-31T17:43:58.501Z,49.16
2022-08-31T17:47:09.814Z,49.58
2022-08-31T17:50:23.236Z,49.95
2022-08-31T17:53:29.126Z,50.46
2022-08-31T17:56:48.095Z,50.17
2022-08-31T17:59:56.133Z,50.36
2022-08-31T18:03:10.724Z,50.54
2022-08-31T18:06:20.722Z,51.04
2022-08-31T18:09:32.443Z,51.22
2022-08-31T18:12:42.348Z,51.18
2022-08-31T18:15:48.042Z,51.82
2022-08-31T18:18:54.287Z,52.28
2022-08-31T18:22:04.761Z,52.23
2022-08-31T18:25:12.202Z,51.91
2022-08-31T18:28:20.594Z,52.40
2022-08-31T18:31:36.662Z,52.38
2022-08-31T18:34:47.721Z,52.69
2022-08-31T18:37:53.517Z,53.14
2022-08-31T18:41:11.575Z,53.77
2022-08-31T18:44:32.255Z,53.78
2022-08-31T18:47:37.838Z,53.97
2022-08-31T18:50:45.157Z,54.12
2022-08-31T18:53:52.259Z,54.58
2022-08-31T18:57:09.496Z,54.80
2022-08-31T19:00:25.817Z,55.31
2022-08-31T19:03:32.230Z,55.91
2022-08-31T19:06:40.140Z,56.44
2022-08-31T19:09:46.182Z,56.09
2022-08-31T19:12:52.609Z,56.17
2022-08-31T19:16:05.602Z,57.10
2022-08-31T19:19:17.210Z,57.19
2022-08-31T19:22:22.976Z,57.85
2022-08-31T19:25:28.626Z,57.97
2022-08-31T19:28:34.312Z,58.46
2022-08-31T19:31:47.235Z,58.37
2022-08-31T19:34:53.057Z,57.79
2022-08-31T19:37:58.925Z,58.26
2022-08-31T19:41:05.508Z,58.94
2022-08-31T19:44:11.977Z,59.04
2022-08-31T19:47:27.353Z,59.55
2022-08-31T19:50:33.106Z,59.72
2022-08-31T19:53:42.627Z,59.39
2022-08-31T19:56:51.250Z,60.00
2022-08-31T19:59:57.494Z,60.60
2022-08-31T20:03:06.412Z,60.97
2022-08-31T20:06:16.565Z,61.13
2022-08-31T20:09:25.463Z,61.43
2022-08-31T20:12:39.685Z,61.28
2022-08-31T20:15:47.845Z,61.39
2022-08-31T20:18:57.850Z,61.79
2022-08-31T20:22:08.308Z,61.77
2022-08-31T20:25:17.871Z,61.88
2022-08-31T20:28:26.521Z,62.28
2022-08-31T20:31:32.603Z,62.77
2022-08-31T20:34:44.957Z,62.70
2022-08-31T20:37:52.720Z,62.82
2022-08-31T20:41:10.854Z,63.00
2022-08-31T20:44:21.055Z,62.51
2022-08-31T20:47:41.635Z,62.19
2022-08-31T20:50:50.135Z,63.29
2022-08-31T20:53:55.887Z,63.15
2022-08-31T20:57:04.831Z,63.53
2022-08-31T21:00:15.155Z,63.34
2022-08-31T21:03:20.997Z,63.77
2022-08-31T21:06:29.590Z,63.96
2022-08-31T21:09:42.765Z,63.89
2022-08-31T21:12:50.397Z,63.54
2022-08-31T21:15:59.189Z,63.98
2022-08-31T21:19:08.617Z,64.05
2022-08-31T21:22:20.898Z,63.40
2022-08-31T21:25:27.135Z,64.06
2022-08-31T21:28:36.578Z,63.99
2022-08-31T21:31:51.979Z,63.56
2022-08-31T21:35:08.530Z,63.37
2022-08-31T21:38:18.794Z,64.18
2022-08-31T21:41:28.148Z,64.07
2022-08-31T21:44:40.907Z,63.48
2022-08-31T21:47:46.496Z,63.91
2022-08-31T21:50:57.674Z,64.00
2022-08-31T21:54:22.883Z,63.30
2022-08-31T21:57:28.701Z,64.28
2022-08-31T22:00:35.210Z,63.88
2022-08-31T22:03:40.836Z,63.87
2022-08-31T22:06:49.958Z,63.61
2022-08-31T22:09:58.203Z,63.59
2022-08-31T22:13:08.695Z,63.97
2022-08-31T22:16:19.929Z,63.22
2022-08-31T22:19:34.016Z,63.68
2022-08-31T22:22:39.663Z,63.17
2022-08-31T22:25:48.159Z,63.27
2022-08-31T22:28:55.653Z,63.61
2022-08-31T22:32:08.748Z,62.86
2022-08-31T22:35:14.668Z,63.07
2022-08-31T22:38:20.462Z,62.66
2022-08-31T22:41:28.931Z,62.76
2022-08-31T22:44:37.830Z,62.32
2022-08-31T22:47:49.800Z,62.46
2022-08-31T22:50:55.981Z,62.24
2022-08-31T22:54:03.117Z,62.48
2022-08-31T22:57:11.604Z,62.69
2022-08-31T23:00:19.445Z,62.21
2022-08-31T23:03:27.363Z,62.50
2022-08-31T23:06:35.194Z,62.33
2022-08-31T23:09:42.682Z,62.73
2022-08-31T23:12:56.290Z,62.40
2022-08-31T23:16:01.989Z,62.43
2022-08-31T23:19:12.451Z,63.14
2022-08-31T23:22:18.718Z,62.51
2022-08-31T23:25:32.505Z,62.79
2022-08-31T23:28:42.597Z,62.61
2022-08-31T23:31:49.993Z,63.39
2022-08-31T23:34:57.510Z,62.99
2022-08-31T23:38:03.207Z,62.71
2022-08-31T23:41:13.657Z,63.37
2022-08-31T23:44:27.564Z,63.83
2022-08-31T23:47:35.223Z,63.57
2022-08-31T23:50:40.795Z,63.99
2022-08-31T23:53:48.784Z,63.84
2022-08-31T23:56:58.150Z,63.91
